createdAt,value
2022-12-22T00:04:51.493Z,4155
2022-12-22T00:10:26.372Z,4153
2022-12-22T00:16:01.709Z,4152.7
2022-12-22T00:21:37.382Z,4153.2
2022-12-22T00:27:12.294Z,4151.8
2022-12-22T00:32:48.441Z,4155.8
2022-12-22T00:38:25.292Z,4154
2022-12-22T00:44:01.410Z,4152.8
2022-12-22T00:49:58.475Z,4147.3
2022-12-22T00:55:31.366Z,4150.7
2022-12-22T01:01:16.006Z,4148.8
2022-12-22T01:07:00.321Z,4150
2022-12-22T01:12:42.467Z,4150
2022-12-22T01:18:20.446Z,4150.3
2022-12-22T01:24:10.685Z,4147.5
2022-12-22T01:29:50.472Z,4148.3
2022-12-22T01:35:25.553Z,4149
2022-12-22T01:41:00.912Z,4149.1
2022-12-22T01:46:57.631Z,4146
2022-12-22T01:52:33.427Z,4146.3
2022-12-22T01:58:26.117Z,4146.6
2022-12-22T02:04:02.708Z,4147.3
2022-12-22T02:09:38.119Z,4148
2022-12-22T02:15:14.229Z,4145.6
2022-12-22T02:20:49.827Z,4145.8
2022-12-22T02:26:43.661Z,4146.5
2022-12-22T02:32:19.478Z,4145.8
2022-12-22T02:37:58.272Z,4147.1
2022-12-22T02:43:33.686Z,4146
2022-12-22T02:49:30.864Z,4142.3
2022-12-22T02:55:04.629Z,4144.6
2022-12-22T03:00:42.222Z,4144.1
2022-12-22T03:07:00.783Z,4144
2022-12-22T03:12:35.979Z,4143.8
2022-12-22T03:18:11.382Z,4143.6
2022-12-22T03:23:46.425Z,4143.8
2022-12-22T03:29:24.421Z,4143.1
2022-12-22T03:34:59.282Z,4143.1
2022-12-22T03:40:52.322Z,4141.6
2022-12-22T03:46:50.888Z,4139.3
2022-12-22T03:52:23.983Z,4138.8
2022-12-22T03:58:08.879Z,4143.8
2022-12-22T04:03:45.569Z,4142.9
2022-12-22T04:09:21.104Z,4139.8
2022-12-22T04:14:56.452Z,4140.8
2022-12-22T04:20:32.278Z,4139.3
2022-12-22T04:26:07.077Z,4139.3
2022-12-22T04:31:43.563Z,4139.3
2022-12-22T04:37:19.835Z,4137.8
2022-12-22T04:43:00.027Z,4135.6
2022-12-22T04:49:01.932Z,4137.4
2022-12-22T04:54:34.893Z,4137.1
2022-12-22T05:00:10.748Z,4136.1
2022-12-22T05:05:46.744Z,4137.2
2022-12-22T05:11:22.257Z,4136.7
2022-12-22T05:17:05.798Z,4137.9
2022-12-22T05:22:54.206Z,4136.4
2022-12-22T05:28:30.229Z,4133.6
2022-12-22T05:34:05.384Z,4134.1
2022-12-22T05:39:41.398Z,4135.1
2022-12-22T05:45:26.752Z,4136.9
2022-12-22T05:51:02.357Z,4133.1
2022-12-22T05:56:37.299Z,4136.7
2022-12-22T06:02:16.114Z,4130.7
2022-12-22T06:07:54.940Z,4133.7
2022-12-22T06:13:30.285Z,4132.1
2022-12-22T06:19:10.512Z,4136.1
2022-12-22T06:24:46.271Z,4132.9
2022-12-22T06:30:33.123Z,4131.2
2022-12-22T06:36:09.325Z,4132.9
2022-12-22T06:42:02.148Z,4130.2
2022-12-22T06:47:59.391Z,4127.5
2022-12-22T06:53:32.680Z,4130.4
2022-12-22T06:59:08.738Z,4128
2022-12-22T07:04:44.079Z,4130.2
2022-12-22T07:10:19.493Z,4126.7
2022-12-22T07:16:04.087Z,4126.9
2022-12-22T07:21:40.596Z,4128.9
2022-12-22T07:27:25.653Z,4124.7
2022-12-22T07:33:00.822Z,4123.2
2022-12-22T07:38:36.257Z,4125.4
2022-12-22T07:44:11.563Z,4125.2
2022-12-22T07:49:46.740Z,4131.9
2022-12-22T07:55:22.004Z,4133.7
2022-12-22T08:00:59.442Z,4187.7
2022-12-22T08:06:35.402Z,4178.5
2022-12-22T08:12:11.340Z,4198.9
2022-12-22T08:18:32.399Z,4188.3
2022-12-22T08:24:07.878Z,4159.4
2022-12-22T08:29:47.091Z,4177.8
2022-12-22T08:35:30.109Z,4201.7
2022-12-22T08:41:13.167Z,4192.5
2022-12-22T08:47:18.994Z,4195.2
2022-12-22T08:52:52.607Z,4191.7
2022-12-22T08:58:31.012Z,4181.5
2022-12-22T09:04:08.907Z,4190.2
2022-12-22T09:10:24.417Z,4197
2022-12-22T09:16:58.981Z,4180.8
2022-12-22T09:22:39.899Z,4194.9
2022-12-22T09:28:19.396Z,4203.1
2022-12-22T09:33:55.126Z,4190
2022-12-22T09:39:31.228Z,4203.6
2022-12-22T09:45:18.375Z,4206.9
2022-12-22T09:51:03.839Z,4194.5
2022-12-22T09:56:41.430Z,4195
2022-12-22T10:02:25.741Z,4189
2022-12-22T10:08:05.102Z,4190.3
2022-12-22T10:14:08.839Z,4208.4
2022-12-22T10:19:44.660Z,4196.5
2022-12-22T10:26:29.018Z,4214
2022-12-22T10:32:54.327Z,4197
2022-12-22T10:38:35.077Z,4198.6
2022-12-22T10:44:31.676Z,4196.5
2022-12-22T10:50:10.962Z,4199.2
2022-12-22T10:56:23.207Z,4207.4
2022-12-22T11:02:00.713Z,4214.8
2022-12-22T11:07:36.311Z,4213.5
2022-12-22T11:13:14.823Z,4200.2
2022-12-22T11:18:53.385Z,4200.7
2022-12-22T11:24:28.380Z,4200.6
2022-12-22T11:30:04.777Z,4218.2
2022-12-22T11:35:55.662Z,4224.4
2022-12-22T11:41:31.540Z,4214.3
2022-12-22T11:47:29.008Z,4203.1
2022-12-22T11:53:24.527Z,4211.6
2022-12-22T12:00:01.299Z,4207.4
2022-12-22T12:05:38.685Z,4215.5
2022-12-22T12:11:14.640Z,4214.8
2022-12-22T12:16:54.050Z,4210.4
2022-12-22T12:22:46.523Z,4207.4
2022-12-22T12:28:30.113Z,4223.3
2022-12-22T12:34:05.508Z,4216.8
2022-12-22T12:39:43.321Z,4207.1
2022-12-22T12:45:22.447Z,4224.9
2022-12-22T12:50:57.777Z,4216.8
2022-12-22T12:56:37.699Z,4219.3
2022-12-22T13:02:36.031Z,4211.5
2022-12-22T13:08:37.204Z,4219
2022-12-22T13:14:26.334Z,4220.7
2022-12-22T13:20:22.344Z,4223.3
2022-12-22T13:26:01.410Z,4200.1
2022-12-22T13:31:38.215Z,4202.9
2022-12-22T13:37:15.207Z,4199.4
2022-12-22T13:42:51.840Z,4201.4
2022-12-22T13:48:48.556Z,4200.4
2022-12-22T13:54:26.845Z,4200.4
2022-12-22T14:00:03.023Z,4195.7
2022-12-22T14:05:48.186Z,4197.4
2022-12-22T14:11:25.334Z,4197.7
2022-12-22T14:17:53.660Z,4205.4
2022-12-22T14:24:02.185Z,4204.6
2022-12-22T14:29:51.268Z,4196.7
2022-12-22T14:37:10.054Z,4201.7
2022-12-22T14:42:45.671Z,4200.7
2022-12-22T14:48:42.264Z,4200.2
2022-12-22T14:54:15.322Z,4199.9
2022-12-22T14:59:50.748Z,4199.4
2022-12-22T15:05:26.007Z,4197.5
2022-12-22T15:11:04.892Z,4194.2
2022-12-22T15:16:41.747Z,4191.4
2022-12-22T15:22:19.146Z,4190.9
2022-12-22T15:27:59.288Z,4190.3
2022-12-22T15:33:40.492Z,4190
2022-12-22T15:39:27.410Z,4191.7
2022-12-22T15:45:23.910Z,4187
2022-12-22T15:51:08.590Z,4190.5
2022-12-22T15:57:41.487Z,4187.7
2022-12-22T16:03:32.904Z,4187.3
2022-12-22T16:09:09.752Z,4186
2022-12-22T16:15:09.066Z,4187.7
2022-12-22T16:20:44.369Z,4185.3
2022-12-22T16:26:19.901Z,4186.3
2022-12-22T16:31:56.888Z,4185.3
2022-12-22T16:37:53.869Z,4183
2022-12-22T16:44:43.597Z,4184.1
2022-12-22T16:50:28.952Z,4182.3
2022-12-22T16:57:11.904Z,4184.7
2022-12-22T17:03:15.862Z,4178.3
2022-12-22T17:09:13.380Z,4180.3
2022-12-22T17:15:01.706Z,4180.3
2022-12-22T17:20:36.554Z,4176.4
2022-12-22T17:26:20.953Z,4179.6
2022-12-22T17:32:07.057Z,4178.5
2022-12-22T17:37:46.331Z,4178.1
2022-12-22T17:43:21.780Z,4176.9
2022-12-22T17:49:18.593Z,4175.6
2022-12-22T17:55:04.912Z,4176.1
2022-12-22T18:00:45.475Z,4177.1
2022-12-22T18:06:22.066Z,4175.8
2022-12-22T18:12:24.079Z,4177.1
2022-12-22T18:18:05.748Z,4176.3
2022-12-22T18:24:13.171Z,4174.6
2022-12-22T18:29:54.408Z,4177.1
2022-12-22T18:35:49.189Z,4175.4
2022-12-22T18:41:51.315Z,4173.1
2022-12-22T18:47:48.628Z,4168.6
2022-12-22T18:53:25.762Z,4172.3
2022-12-22T18:59:00.968Z,4169.4
2022-12-22T19:04:46.766Z,4174.6
2022-12-22T19:10:23.997Z,4172.6
2022-12-22T19:16:00.592Z,4170.7
2022-12-22T19:21:36.691Z,4172.9
2022-12-22T19:27:14.850Z,4172.1
2022-12-22T19:32:52.557Z,4171.4
2022-12-22T19:38:32.393Z,4169.6
2022-12-22T19:44:29.240Z,4168.7
2022-12-22T19:50:04.301Z,4171.1
2022-12-22T19:55:40.477Z,4170.6
2022-12-22T20:01:37.589Z,4168.6
2022-12-22T20:07:15.555Z,4171.1
2022-12-22T20:13:07.884Z,4169.7
2022-12-22T20:18:43.806Z,4168.7
2022-12-22T20:24:29.298Z,4171.3
2022-12-22T20:30:07.376Z,4168.4
2022-12-22T20:36:04.813Z,4168.6
2022-12-22T20:41:52.487Z,4165.2
2022-12-22T20:47:28.687Z,4168.4
2022-12-22T20:53:11.604Z,4166.9
2022-12-22T20:58:47.375Z,4163.5
2022-12-22T21:04:22.410Z,4166.1
2022-12-22T21:10:11.724Z,4166.4
2022-12-22T21:15:52.368Z,4163.5
2022-12-22T21:21:36.623Z,4167.1
2022-12-22T21:27:11.657Z,4160.9
2022-12-22T21:32:52.024Z,4161.7
2022-12-22T21:38:29.367Z,4166.2
2022-12-22T21:44:10.945Z,4162.7
2022-12-22T21:50:03.324Z,4164.9
2022-12-22T21:55:39.122Z,4162.7
2022-12-22T22:01:15.946Z,4164
2022-12-22T22:06:52.386Z,4161.2
2022-12-22T22:12:59.110Z,4160
2022-12-22T22:19:07.463Z,4161.5
2022-12-22T22:25:06.585Z,4162
2022-12-22T22:31:31.782Z,4160.2
2022-12-22T22:37:36.283Z,4159.2
2022-12-22T22:43:17.729Z,4159.5
2022-12-22T22:49:14.744Z,4154.7
2022-12-22T22:54:48.329Z,4157.4
2022-12-22T23:00:36.101Z,4158.7
2022-12-22T23:06:15.682Z,4160.5
2022-12-22T23:11:55.824Z,4157.2
2022-12-22T23:17:32.978Z,4158.2
2022-12-22T23:23:08.887Z,4156.8
2022-12-22T23:29:13.574Z,4154.3
2022-12-22T23:34:50.780Z,4154.5
2022-12-22T23:40:56.058Z,4153.8
2022-12-22T23:46:54.586Z,4152.3
2022-12-22T23:52:30.488Z,4154.5
2022-12-22T23:58:29.643Z,4154.3
